Kezdőlap
METAR-TAF:

METAR-TAF

Repülőterek :

Gilmer Municipal Airport (Fox Stephens Field)

Gilmer, Texas, Amerikai Egyesült Államok

földrajzi szélesség: 32-41-56N, földrajzi hosszúság: 094-56-55W, magasság: 127 m

Jelenlegi meteorológiai megfigyelések

A jelentés 8 perccel ezelõtt készült, 20:15 UTC
Dél-délkeleti szél 5 kt
Hőmérséklet 33°C
Páratartalom 41%
Légköri nyomás 1013 hPa
Látótávolság: 16.1 km
Derült ég

METAR: KJXI 152015Z AUTO 15005KT 10SM CLR 33/18 A2991 RMK AO2 T03250180

Idő: 15:23 (20:23 UTC)


TAF: hiányzik

Meteorológiai megfigyelések és előrejelzések több, mint 4000 repülőtéren (METAR és TAF jelentéseket).

A térképen piros és sárga pontok jelzik az elérhető meteorológiai állomásokat.

Mozgassa az egeret a pont fölött, hogy megjelenjen az állomás neve.

Azután kattintson az időjárási megfigyelések és előrejelzések megtekintéséhez.

A térkép megváltoztatása: kattintson a fekete keresztel jelölt zöld gombra ráközelítéshez, a vonallal jelölt zöld gombra távolításhoz, vagy a zöld nyilakra a szomszédos térképek eléréséhez.


METAR-TAF: